BHS3742 MYNN-MYEF
Flight info
| Callsign | BHS3742 |
|---|---|
| Flight time | 0h 23m |
| Altitude | 17000 |
| Route | BOSAR |
| Aircraft | B737/M-SDE2E3FGHIRWXY/LB1 |
Departure
| Time | 2026-05-06 02:14 |
|---|---|
| Airport | Lynden Pindling International Airport (MYNN) |
Arrival
| Time | 2026-05-06 02:37 |
|---|---|
| Airport | Exuma International Airport (MYEF) |
| Time | Latitude | Longitude | Altitude | Speed | Heading |
|---|---|---|---|---|---|
| 2026-05-06 01:59 | 25.04715 | -77.46550 | 26 ft | 0 kts | 358° |
| 2026-05-06 02:09 | 25.04719 | -77.46551 | 26 ft | 0 kts | 329° |
| 2026-05-06 02:09 | 25.04718 | -77.46557 | 26 ft | 2 kts | 221° |
| 2026-05-06 02:09 | 25.04690 | -77.46570 | 26 ft | 5 kts | 204° |
| 2026-05-06 02:09 | 25.04669 | -77.46594 | 26 ft | 5 kts | 269° |
| 2026-05-06 02:10 | 25.04687 | -77.46628 | 26 ft | 5 kts | 311° |
| 2026-05-06 02:10 | 25.04716 | -77.46661 | 26 ft | 6 kts | 315° |
| 2026-05-06 02:10 | 25.04736 | -77.46701 | 26 ft | 6 kts | 258° |
| 2026-05-06 02:10 | 25.04709 | -77.46743 | 26 ft | 7 kts | 251° |
| 2026-05-06 02:11 | 25.04722 | -77.46794 | 26 ft | 7 kts | 310° |
| 2026-05-06 02:11 | 25.04760 | -77.46838 | 26 ft | 8 kts | 314° |
| 2026-05-06 02:11 | 25.04808 | -77.46890 | 26 ft | 13 kts | 316° |
| 2026-05-06 02:11 | 25.04896 | -77.46989 | 27 ft | 23 kts | 318° |
| 2026-05-06 02:12 | 25.05015 | -77.47126 | 27 ft | 17 kts | 313° |
| 2026-05-06 02:12 | 25.05100 | -77.47219 | 26 ft | 17 kts | 314° |
| 2026-05-06 02:12 | 25.05189 | -77.47316 | 26 ft | 18 kts | 312° |
| 2026-05-06 02:12 | 25.05218 | -77.47447 | 26 ft | 18 kts | 252° |
| 2026-05-06 02:13 | 25.05166 | -77.47543 | 26 ft | 7 kts | 171° |
| 2026-05-06 02:13 | 25.05153 | -77.47532 | 26 ft | 2 kts | 136° |
| 2026-05-06 02:13 | 25.05000 | -77.47367 | 27 ft | 87 kts | 135° |
| 2026-05-06 02:13 | 25.04337 | -77.46615 | 438 ft | 166 kts | 134° |
| 2026-05-06 02:14 | 25.03702 | -77.45750 | 2099 ft | 153 kts | 128° |
| 2026-05-06 02:14 | 25.03019 | -77.44833 | 3116 ft | 181 kts | 131° |
| 2026-05-06 02:14 | 25.02131 | -77.43665 | 4040 ft | 221 kts | 132° |
| 2026-05-06 02:14 | 25.01011 | -77.42432 | 5302 ft | 242 kts | 142° |
| 2026-05-06 02:15 | 24.99692 | -77.41245 | 6719 ft | 257 kts | 143° |
| 2026-05-06 02:15 | 24.98344 | -77.39999 | 8148 ft | 264 kts | 142° |
| 2026-05-06 02:15 | 24.96977 | -77.38671 | 9534 ft | 269 kts | 141° |
| 2026-05-06 02:15 | 24.95584 | -77.37273 | 10787 ft | 278 kts | 141° |
| 2026-05-06 02:16 | 24.94172 | -77.35832 | 12031 ft | 284 kts | 140° |
| 2026-05-06 02:16 | 24.92732 | -77.34356 | 13218 ft | 288 kts | 140° |
| 2026-05-06 02:16 | 24.91258 | -77.32850 | 14208 ft | 295 kts | 140° |
| 2026-05-06 02:16 | 24.89741 | -77.31303 | 15212 ft | 302 kts | 139° |
| 2026-05-06 02:17 | 24.88223 | -77.29753 | 16220 ft | 306 kts | 139° |
| 2026-05-06 02:17 | 24.86607 | -77.28105 | 16857 ft | 324 kts | 139° |
| 2026-05-06 02:17 | 24.84863 | -77.26331 | 16997 ft | 356 kts | 138° |
| 2026-05-06 02:17 | 24.82967 | -77.24403 | 16996 ft | 388 kts | 138° |
| 2026-05-06 02:18 | 24.80904 | -77.22306 | 16995 ft | 416 kts | 138° |
| 2026-05-06 02:18 | 24.78680 | -77.20045 | 16992 ft | 441 kts | 138° |
| 2026-05-06 02:18 | 24.76393 | -77.17720 | 16990 ft | 454 kts | 138° |
| 2026-05-06 02:18 | 24.74086 | -77.15373 | 16989 ft | 457 kts | 138° |
| 2026-05-06 02:19 | 24.71738 | -77.12986 | 16990 ft | 458 kts | 138° |
| 2026-05-06 02:19 | 24.70529 | -77.11756 | 16991 ft | 457 kts | 138° |
| 2026-05-06 02:19 | 24.69646 | -77.10859 | 16989 ft | 456 kts | 138° |
| 2026-05-06 02:19 | 24.67638 | -77.08817 | 16990 ft | 458 kts | 138° |
| 2026-05-06 02:20 | 24.62474 | -77.03565 | 16993 ft | 456 kts | 138° |
| 2026-05-06 02:20 | 24.60105 | -77.01153 | 16996 ft | 457 kts | 138° |
| 2026-05-06 02:20 | 24.57792 | -76.98800 | 16993 ft | 457 kts | 138° |
| 2026-05-06 02:21 | 24.55446 | -76.96413 | 16994 ft | 456 kts | 138° |
| 2026-05-06 02:21 | 24.53113 | -76.94042 | 16995 ft | 458 kts | 138° |
| 2026-05-06 02:21 | 24.50787 | -76.91680 | 16995 ft | 456 kts | 138° |
| 2026-05-06 02:21 | 24.48451 | -76.89311 | 16994 ft | 456 kts | 138° |
| 2026-05-06 02:22 | 24.46098 | -76.86923 | 16997 ft | 456 kts | 138° |
| 2026-05-06 02:22 | 24.43764 | -76.84556 | 16994 ft | 455 kts | 138° |
| 2026-05-06 02:22 | 24.41434 | -76.82194 | 16997 ft | 457 kts | 138° |
| 2026-05-06 02:22 | 24.39111 | -76.79842 | 16995 ft | 455 kts | 138° |
| 2026-05-06 02:23 | 24.36767 | -76.77470 | 16997 ft | 456 kts | 138° |
| 2026-05-06 02:23 | 24.34457 | -76.75133 | 16993 ft | 456 kts | 138° |
| 2026-05-06 02:23 | 24.32105 | -76.72754 | 16994 ft | 457 kts | 138° |
| 2026-05-06 02:23 | 24.29778 | -76.70403 | 16993 ft | 455 kts | 138° |
| 2026-05-06 02:24 | 24.27422 | -76.68024 | 16989 ft | 455 kts | 138° |
| 2026-05-06 02:24 | 24.25100 | -76.65682 | 16991 ft | 455 kts | 138° |
| 2026-05-06 02:24 | 24.22743 | -76.63304 | 16993 ft | 456 kts | 138° |
| 2026-05-06 02:24 | 24.20410 | -76.60952 | 16992 ft | 455 kts | 138° |
| 2026-05-06 02:25 | 24.18070 | -76.58593 | 16968 ft | 454 kts | 138° |
| 2026-05-06 02:25 | 24.15748 | -76.56253 | 16703 ft | 456 kts | 138° |
| 2026-05-06 02:25 | 24.13435 | -76.53923 | 16329 ft | 442 kts | 138° |
| 2026-05-06 02:25 | 24.11219 | -76.51690 | 15436 ft | 439 kts | 139° |
| 2026-05-06 02:26 | 24.08975 | -76.49432 | 14541 ft | 434 kts | 139° |
| 2026-05-06 02:26 | 24.06766 | -76.47209 | 13647 ft | 430 kts | 139° |
| 2026-05-06 02:26 | 24.04572 | -76.45005 | 12829 ft | 424 kts | 139° |
| 2026-05-06 02:26 | 24.02416 | -76.42838 | 12219 ft | 417 kts | 139° |
| 2026-05-06 02:27 | 24.00307 | -76.40719 | 11623 ft | 413 kts | 139° |
| 2026-05-06 02:27 | 23.98215 | -76.38619 | 11032 ft | 410 kts | 139° |
| 2026-05-06 02:27 | 23.96096 | -76.36494 | 10424 ft | 404 kts | 139° |
| 2026-05-06 02:27 | 23.94032 | -76.34425 | 9820 ft | 401 kts | 139° |
| 2026-05-06 02:28 | 23.92019 | -76.32407 | 9232 ft | 396 kts | 139° |
| 2026-05-06 02:28 | 23.89984 | -76.30369 | 8627 ft | 392 kts | 139° |
| 2026-05-06 02:28 | 23.87974 | -76.28356 | 8024 ft | 388 kts | 139° |
| 2026-05-06 02:28 | 23.85990 | -76.26370 | 7420 ft | 384 kts | 139° |
| 2026-05-06 02:29 | 23.84029 | -76.24410 | 6817 ft | 379 kts | 139° |
| 2026-05-06 02:29 | 23.82117 | -76.22497 | 6221 ft | 375 kts | 139° |
| 2026-05-06 02:29 | 23.80197 | -76.20578 | 5616 ft | 372 kts | 139° |
| 2026-05-06 02:29 | 23.78286 | -76.18669 | 5010 ft | 368 kts | 138° |
| 2026-05-06 02:30 | 23.76426 | -76.16812 | 4410 ft | 359 kts | 138° |
| 2026-05-06 02:30 | 23.74617 | -76.15015 | 3810 ft | 349 kts | 138° |
| 2026-05-06 02:30 | 23.72834 | -76.13251 | 3339 ft | 337 kts | 138° |
| 2026-05-06 02:30 | 23.71133 | -76.11572 | 3000 ft | 322 kts | 138° |
| 2026-05-06 02:31 | 23.69501 | -76.09963 | 2652 ft | 306 kts | 138° |
| 2026-05-06 02:31 | 23.67969 | -76.08451 | 2313 ft | 285 kts | 137° |
| 2026-05-06 02:31 | 23.66538 | -76.07039 | 2039 ft | 266 kts | 137° |
| 2026-05-06 02:31 | 23.65221 | -76.05734 | 2009 ft | 241 kts | 136° |
| 2026-05-06 02:32 | 23.64175 | -76.04428 | 2022 ft | 216 kts | 123° |
| 2026-05-06 02:32 | 23.63489 | -76.03065 | 2029 ft | 192 kts | 116° |
| 2026-05-06 02:32 | 23.62940 | -76.01812 | 2025 ft | 174 kts | 116° |
| 2026-05-06 02:32 | 23.62443 | -76.00723 | 2041 ft | 145 kts | 117° |
| 2026-05-06 02:33 | 23.62012 | -75.99809 | 1977 ft | 124 kts | 117° |
| 2026-05-06 02:33 | 23.61756 | -75.99271 | 1959 ft | 119 kts | 117° |
| 2026-05-06 02:34 | 23.60468 | -75.96580 | 1649 ft | 120 kts | 117° |
| 2026-05-06 02:34 | 23.60079 | -75.95763 | 1469 ft | 119 kts | 116° |
| 2026-05-06 02:34 | 23.59692 | -75.94968 | 1271 ft | 117 kts | 118° |
| 2026-05-06 02:34 | 23.59302 | -75.94202 | 1183 ft | 114 kts | 117° |
| 2026-05-06 02:35 | 23.58965 | -75.93516 | 1160 ft | 114 kts | 117° |
| 2026-05-06 02:35 | 23.58588 | -75.92726 | 948 ft | 118 kts | 114° |
| 2026-05-06 02:35 | 23.58245 | -75.91884 | 762 ft | 123 kts | 114° |
| 2026-05-06 02:35 | 23.57837 | -75.91049 | 585 ft | 123 kts | 118° |
| 2026-05-06 02:36 | 23.57430 | -75.90223 | 422 ft | 122 kts | 116° |
| 2026-05-06 02:36 | 23.57036 | -75.89400 | 242 ft | 123 kts | 116° |
| 2026-05-06 02:36 | 23.56641 | -75.88580 | 52 ft | 120 kts | 117° |
| 2026-05-06 02:36 | 23.56274 | -75.87823 | 18 ft | 104 kts | 116° |
| 2026-05-06 02:37 | 23.56039 | -75.87322 | 18 ft | 37 kts | 118° |
| 2026-05-06 02:37 | 23.55929 | -75.87107 | 18 ft | 28 kts | 125° |
| 2026-05-06 02:37 | 23.55923 | -75.87074 | 17 ft | 9 kts | 302° |
| 2026-05-06 02:37 | 23.55979 | -75.87193 | 17 ft | 26 kts | 298° |
| 2026-05-06 02:38 | 23.56088 | -75.87412 | 17 ft | 31 kts | 297° |
| 2026-05-06 02:38 | 23.56165 | -75.87461 | 17 ft | 12 kts | 14° |
| 2026-05-06 02:38 | 23.56249 | -75.87420 | 17 ft | 13 kts | 28° |
| 2026-05-06 02:38 | 23.56321 | -75.87372 | 17 ft | 6 kts | 56° |
| 2026-05-06 02:39 | 23.56323 | -75.87365 | 18 ft | 0 kts | 97° |
| 2026-05-06 02:39 | 23.56301 | -75.87329 | 19 ft | 14 kts | 125° |
| 2026-05-06 02:39 | 23.56288 | -75.87261 | 20 ft | 2 kts | 31° |
| 2026-05-06 02:39 | 23.56290 | -75.87260 | 20 ft | 0 kts | 26° |